sensor_id;sensor_type;location;lat;lon;timestamp;P1;durP1;ratioP1;P2;durP2;ratioP2
14276;SDS011;7222;57.346;12.150;2023-03-01T00:01:27;5.47;;;3.97;;
14276;SDS011;7222;57.346;12.150;2023-03-01T00:03:55;4.43;;;2.90;;
14276;SDS011;7222;57.346;12.150;2023-03-01T00:06:24;3.27;;;2.97;;
14276;SDS011;7222;57.346;12.150;2023-03-01T00:08:51;3.10;;;2.80;;
14276;SDS011;7222;57.346;12.150;2023-03-01T00:11:20;3.73;;;3.33;;
14276;SDS011;7222;57.346;12.150;2023-03-01T00:13:49;4.27;;;3.20;;
14276;SDS011;7222;57.346;12.150;2023-03-01T00:16:18;3.43;;;3.03;;
14276;SDS011;7222;57.346;12.150;2023-03-01T00:18:46;3.70;;;2.87;;
14276;SDS011;7222;57.346;12.150;2023-03-01T00:21:16;3.87;;;2.73;;
14276;SDS011;7222;57.346;12.150;2023-03-01T00:23:45;4.13;;;2.70;;
14276;SDS011;7222;57.346;12.150;2023-03-01T00:26:13;3.33;;;2.70;;
14276;SDS011;7222;57.346;12.150;2023-03-01T00:28:43;3.00;;;2.63;;
14276;SDS011;7222;57.346;12.150;2023-03-01T00:31:10;3.37;;;2.20;;
14276;SDS011;7222;57.346;12.150;2023-03-01T00:33:39;2.50;;;2.30;;
14276;SDS011;7222;57.346;12.150;2023-03-01T00:36:07;2.63;;;2.43;;
14276;SDS011;7222;57.346;12.150;2023-03-01T00:38:35;2.80;;;2.50;;
14276;SDS011;7222;57.346;12.150;2023-03-01T00:41:03;2.07;;;1.90;;
14276;SDS011;7222;57.346;12.150;2023-03-01T00:43:31;1.93;;;1.80;;
14276;SDS011;7222;57.346;12.150;2023-03-01T00:46:03;2.20;;;2.00;;
14276;SDS011;7222;57.346;12.150;2023-03-01T00:48:31;2.30;;;2.00;;
14276;SDS011;7222;57.346;12.150;2023-03-01T00:51:03;2.27;;;1.90;;
14276;SDS011;7222;57.346;12.150;2023-03-01T00:53:32;2.77;;;2.27;;
14276;SDS011;7222;57.346;12.150;2023-03-01T00:55:59;2.30;;;1.90;;
14276;SDS011;7222;57.346;12.150;2023-03-01T00:58:27;2.37;;;2.00;;
14276;SDS011;7222;57.346;12.150;2023-03-01T01:00:54;3.43;;;2.20;;
14276;SDS011;7222;57.346;12.150;2023-03-01T01:03:23;2.87;;;2.13;;
14276;SDS011;7222;57.346;12.150;2023-03-01T01:05:50;3.03;;;1.70;;
14276;SDS011;7222;57.346;12.150;2023-03-01T01:08:17;1.60;;;1.50;;
14276;SDS011;7222;57.346;12.150;2023-03-01T01:10:44;2.03;;;1.67;;
14276;SDS011;7222;57.346;12.150;2023-03-01T01:13:12;2.67;;;1.80;;
14276;SDS011;7222;57.346;12.150;2023-03-01T01:15:39;2.13;;;1.93;;
14276;SDS011;7222;57.346;12.150;2023-03-01T01:18:06;2.77;;;2.20;;
14276;SDS011;7222;57.346;12.150;2023-03-01T01:20:36;2.13;;;1.93;;
14276;SDS011;7222;57.346;12.150;2023-03-01T01:23:04;2.77;;;1.70;;
14276;SDS011;7222;57.346;12.150;2023-03-01T01:25:33;2.57;;;2.10;;
14276;SDS011;7222;57.346;12.150;2023-03-01T01:28:01;2.17;;;2.00;;
14276;SDS011;7222;57.346;12.150;2023-03-01T01:30:28;3.03;;;2.00;;
14276;SDS011;7222;57.346;12.150;2023-03-01T01:32:54;1.83;;;1.63;;
14276;SDS011;7222;57.346;12.150;2023-03-01T01:35:21;4.00;;;2.20;;
14276;SDS011;7222;57.346;12.150;2023-03-01T01:37:50;4.57;;;2.60;;
14276;SDS011;7222;57.346;12.150;2023-03-01T01:40:17;3.47;;;2.47;;
14276;SDS011;7222;57.346;12.150;2023-03-01T01:42:43;3.77;;;2.43;;
14276;SDS011;7222;57.346;12.150;2023-03-01T01:45:31;3.77;;;2.40;;
14276;SDS011;7222;57.346;12.150;2023-03-01T01:48:00;4.30;;;2.70;;
14276;SDS011;7222;57.346;12.150;2023-03-01T01:50:31;3.73;;;2.17;;
14276;SDS011;7222;57.346;12.150;2023-03-01T01:53:04;3.23;;;2.93;;
14276;SDS011;7222;57.346;12.150;2023-03-01T01:55:33;4.23;;;3.10;;
14276;SDS011;7222;57.346;12.150;2023-03-01T01:58:04;5.20;;;3.20;;
14276;SDS011;7222;57.346;12.150;2023-03-01T02:00:33;4.27;;;3.27;;
14276;SDS011;7222;57.346;12.150;2023-03-01T02:03:01;3.87;;;3.53;;
14276;SDS011;7222;57.346;12.150;2023-03-01T02:05:33;3.83;;;3.17;;
14276;SDS011;7222;57.346;12.150;2023-03-01T02:08:06;4.33;;;3.57;;
14276;SDS011;7222;57.346;12.150;2023-03-01T02:10:36;6.10;;;3.60;;
14276;SDS011;7222;57.346;12.150;2023-03-01T02:13:04;4.30;;;3.07;;
14276;SDS011;7222;57.346;12.150;2023-03-01T02:15:31;4.00;;;3.60;;
14276;SDS011;7222;57.346;12.150;2023-03-01T02:17:59;5.63;;;4.63;;
14276;SDS011;7222;57.346;12.150;2023-03-01T02:20:29;4.37;;;3.70;;
14276;SDS011;7222;57.346;12.150;2023-03-01T02:23:02;3.33;;;2.90;;
14276;SDS011;7222;57.346;12.150;2023-03-01T02:25:33;3.83;;;3.03;;
14276;SDS011;7222;57.346;12.150;2023-03-01T02:28:05;7.20;;;4.23;;
14276;SDS011;7222;57.346;12.150;2023-03-01T02:30:42;6.37;;;4.80;;
14276;SDS011;7222;57.346;12.150;2023-03-01T02:33:24;7.83;;;6.10;;
14276;SDS011;7222;57.346;12.150;2023-03-01T02:35:52;9.40;;;7.50;;
14276;SDS011;7222;57.346;12.150;2023-03-01T02:38:21;12.93;;;8.83;;
14276;SDS011;7222;57.346;12.150;2023-03-01T02:40:49;9.07;;;6.97;;
14276;SDS011;7222;57.346;12.150;2023-03-01T02:43:17;12.37;;;8.33;;
14276;SDS011;7222;57.346;12.150;2023-03-01T02:45:51;9.07;;;6.97;;
14276;SDS011;7222;57.346;12.150;2023-03-01T02:48:19;10.30;;;7.60;;
14276;SDS011;7222;57.346;12.150;2023-03-01T02:50:52;13.77;;;8.40;;
14276;SDS011;7222;57.346;12.150;2023-03-01T02:53:33;10.03;;;7.37;;
14276;SDS011;7222;57.346;12.150;2023-03-01T02:56:05;8.37;;;6.17;;
14276;SDS011;7222;57.346;12.150;2023-03-01T02:58:37;7.37;;;5.87;;
14276;SDS011;7222;57.346;12.150;2023-03-01T03:01:11;5.90;;;4.40;;
14276;SDS011;7222;57.346;12.150;2023-03-01T03:03:40;5.40;;;4.20;;
14276;SDS011;7222;57.346;12.150;2023-03-01T03:06:08;7.17;;;5.20;;
14276;SDS011;7222;57.346;12.150;2023-03-01T03:08:35;5.87;;;5.07;;
14276;SDS011;7222;57.346;12.150;2023-03-01T03:11:03;8.43;;;5.33;;
14276;SDS011;7222;57.346;12.150;2023-03-01T03:13:30;7.40;;;5.07;;
14276;SDS011;7222;57.346;12.150;2023-03-01T03:15:57;6.07;;;4.77;;
14276;SDS011;7222;57.346;12.150;2023-03-01T03:18:25;5.57;;;4.03;;
14276;SDS011;7222;57.346;12.150;2023-03-01T03:20:52;4.50;;;3.50;;
14276;SDS011;7222;57.346;12.150;2023-03-01T03:23:20;4.10;;;3.50;;
14276;SDS011;7222;57.346;12.150;2023-03-01T03:25:48;4.77;;;3.60;;
14276;SDS011;7222;57.346;12.150;2023-03-01T03:28:15;3.27;;;2.93;;
14276;SDS011;7222;57.346;12.150;2023-03-01T03:30:43;4.23;;;3.30;;
14276;SDS011;7222;57.346;12.150;2023-03-01T03:33:12;4.87;;;3.30;;
14276;SDS011;7222;57.346;12.150;2023-03-01T03:35:42;3.23;;;2.93;;
14276;SDS011;7222;57.346;12.150;2023-03-01T03:38:11;3.77;;;3.33;;
14276;SDS011;7222;57.346;12.150;2023-03-01T03:40:42;6.00;;;3.90;;
14276;SDS011;7222;57.346;12.150;2023-03-01T03:43:12;7.23;;;3.90;;
14276;SDS011;7222;57.346;12.150;2023-03-01T03:45:40;8.73;;;5.53;;
14276;SDS011;7222;57.346;12.150;2023-03-01T03:48:08;6.23;;;5.17;;
14276;SDS011;7222;57.346;12.150;2023-03-01T03:50:36;4.77;;;3.67;;
14276;SDS011;7222;57.346;12.150;2023-03-01T03:53:06;7.60;;;5.23;;
14276;SDS011;7222;57.346;12.150;2023-03-01T03:55:33;7.67;;;5.40;;
14276;SDS011;7222;57.346;12.150;2023-03-01T03:58:04;7.90;;;5.20;;
14276;SDS011;7222;57.346;12.150;2023-03-01T04:00:33;7.73;;;5.10;;
14276;SDS011;7222;57.346;12.150;2023-03-01T04:03:02;5.47;;;4.63;;
14276;SDS011;7222;57.346;12.150;2023-03-01T04:05:30;5.10;;;4.07;;
14276;SDS011;7222;57.346;12.150;2023-03-01T04:07:57;6.53;;;4.63;;
14276;SDS011;7222;57.346;12.150;2023-03-01T04:10:34;6.20;;;4.30;;
14276;SDS011;7222;57.346;12.150;2023-03-01T04:13:02;4.50;;;3.27;;
14276;SDS011;7222;57.346;12.150;2023-03-01T04:15:29;5.07;;;4.07;;
14276;SDS011;7222;57.346;12.150;2023-03-01T04:17:58;5.87;;;4.57;;
14276;SDS011;7222;57.346;12.150;2023-03-01T04:20:26;4.47;;;3.87;;
14276;SDS011;7222;57.346;12.150;2023-03-01T04:22:57;4.93;;;3.97;;
14276;SDS011;7222;57.346;12.150;2023-03-01T04:25:25;7.60;;;5.30;;
14276;SDS011;7222;57.346;12.150;2023-03-01T04:27:54;5.13;;;4.10;;
14276;SDS011;7222;57.346;12.150;2023-03-01T04:30:21;6.50;;;4.07;;
14276;SDS011;7222;57.346;12.150;2023-03-01T04:32:50;6.77;;;3.90;;
14276;SDS011;7222;57.346;12.150;2023-03-01T04:35:17;6.70;;;4.47;;
14276;SDS011;7222;57.346;12.150;2023-03-01T04:37:44;5.67;;;4.50;;
14276;SDS011;7222;57.346;12.150;2023-03-01T04:40:11;7.60;;;5.40;;
14276;SDS011;7222;57.346;12.150;2023-03-01T04:42:41;9.00;;;5.43;;
14276;SDS011;7222;57.346;12.150;2023-03-01T04:45:10;5.13;;;4.47;;
14276;SDS011;7222;57.346;12.150;2023-03-01T04:47:39;6.73;;;4.80;;
14276;SDS011;7222;57.346;12.150;2023-03-01T04:50:08;5.37;;;3.90;;
14276;SDS011;7222;57.346;12.150;2023-03-01T04:52:36;4.87;;;3.87;;
14276;SDS011;7222;57.346;12.150;2023-03-01T04:55:03;6.93;;;4.03;;
14276;SDS011;7222;57.346;12.150;2023-03-01T04:57:31;6.40;;;3.97;;
14276;SDS011;7222;57.346;12.150;2023-03-01T04:59:59;5.03;;;3.83;;
14276;SDS011;7222;57.346;12.150;2023-03-01T05:02:29;4.97;;;3.70;;
14276;SDS011;7222;57.346;12.150;2023-03-01T05:04:56;4.17;;;2.90;;
14276;SDS011;7222;57.346;12.150;2023-03-01T05:07:23;4.40;;;3.63;;
14276;SDS011;7222;57.346;12.150;2023-03-01T05:09:51;4.53;;;3.10;;
14276;SDS011;7222;57.346;12.150;2023-03-01T05:12:19;5.30;;;3.77;;
14276;SDS011;7222;57.346;12.150;2023-03-01T05:14:46;5.87;;;4.20;;
14276;SDS011;7222;57.346;12.150;2023-03-01T05:17:13;6.37;;;3.97;;
14276;SDS011;7222;57.346;12.150;2023-03-01T05:19:41;5.80;;;4.97;;
14276;SDS011;7222;57.346;12.150;2023-03-01T05:22:08;4.93;;;4.03;;
14276;SDS011;7222;57.346;12.150;2023-03-01T05:24:35;5.50;;;4.43;;
14276;SDS011;7222;57.346;12.150;2023-03-01T05:27:03;4.30;;;3.63;;
14276;SDS011;7222;57.346;12.150;2023-03-01T05:29:31;7.83;;;5.17;;
14276;SDS011;7222;57.346;12.150;2023-03-01T05:32:00;6.23;;;4.90;;
14276;SDS011;7222;57.346;12.150;2023-03-01T05:34:29;9.60;;;7.00;;
14276;SDS011;7222;57.346;12.150;2023-03-01T05:36:58;13.37;;;8.93;;
14276;SDS011;7222;57.346;12.150;2023-03-01T05:39:26;13.60;;;10.40;;
14276;SDS011;7222;57.346;12.150;2023-03-01T05:41:55;13.17;;;9.60;;
14276;SDS011;7222;57.346;12.150;2023-03-01T05:44:23;13.50;;;8.60;;
14276;SDS011;7222;57.346;12.150;2023-03-01T05:46:51;8.73;;;6.33;;
14276;SDS011;7222;57.346;12.150;2023-03-01T05:49:18;12.47;;;7.30;;
14276;SDS011;7222;57.346;12.150;2023-03-01T05:51:47;10.67;;;6.23;;
14276;SDS011;7222;57.346;12.150;2023-03-01T05:54:17;9.30;;;5.90;;
14276;SDS011;7222;57.346;12.150;2023-03-01T05:56:45;8.33;;;5.00;;
14276;SDS011;7222;57.346;12.150;2023-03-01T05:59:12;7.47;;;5.00;;
14276;SDS011;7222;57.346;12.150;2023-03-01T06:01:41;6.93;;;5.10;;
14276;SDS011;7222;57.346;12.150;2023-03-01T06:04:08;9.73;;;7.20;;
14276;SDS011;7222;57.346;12.150;2023-03-01T06:06:35;9.03;;;6.17;;
14276;SDS011;7222;57.346;12.150;2023-03-01T06:09:03;6.90;;;5.23;;
14276;SDS011;7222;57.346;12.150;2023-03-01T06:11:34;6.70;;;4.90;;
14276;SDS011;7222;57.346;12.150;2023-03-01T06:14:01;6.23;;;5.00;;
14276;SDS011;7222;57.346;12.150;2023-03-01T06:16:29;9.33;;;6.03;;
14276;SDS011;7222;57.346;12.150;2023-03-01T06:18:56;8.17;;;6.00;;
14276;SDS011;7222;57.346;12.150;2023-03-01T06:21:23;8.13;;;6.37;;
14276;SDS011;7222;57.346;12.150;2023-03-01T06:23:50;9.63;;;6.20;;
14276;SDS011;7222;57.346;12.150;2023-03-01T06:26:18;7.60;;;5.30;;
14276;SDS011;7222;57.346;12.150;2023-03-01T06:28:46;12.47;;;7.87;;
14276;SDS011;7222;57.346;12.150;2023-03-01T06:31:13;15.53;;;10.67;;
14276;SDS011;7222;57.346;12.150;2023-03-01T06:33:40;16.23;;;9.33;;
14276;SDS011;7222;57.346;12.150;2023-03-01T06:36:09;17.70;;;10.63;;
14276;SDS011;7222;57.346;12.150;2023-03-01T06:38:36;12.73;;;8.30;;
14276;SDS011;7222;57.346;12.150;2023-03-01T06:41:05;10.97;;;7.37;;
14276;SDS011;7222;57.346;12.150;2023-03-01T06:43:32;9.50;;;6.23;;
14276;SDS011;7222;57.346;12.150;2023-03-01T06:46:02;11.90;;;6.97;;
14276;SDS011;7222;57.346;12.150;2023-03-01T06:48:30;7.63;;;4.97;;
14276;SDS011;7222;57.346;12.150;2023-03-01T06:50:57;7.70;;;4.87;;
14276;SDS011;7222;57.346;12.150;2023-03-01T06:53:25;8.90;;;4.33;;
14276;SDS011;7222;57.346;12.150;2023-03-01T06:55:53;6.20;;;3.90;;
14276;SDS011;7222;57.346;12.150;2023-03-01T06:58:21;6.23;;;3.80;;
14276;SDS011;7222;57.346;12.150;2023-03-01T07:00:48;6.67;;;3.80;;
14276;SDS011;7222;57.346;12.150;2023-03-01T07:03:16;5.60;;;4.10;;
14276;SDS011;7222;57.346;12.150;2023-03-01T07:05:43;6.60;;;3.80;;
14276;SDS011;7222;57.346;12.150;2023-03-01T07:08:10;6.10;;;3.33;;
14276;SDS011;7222;57.346;12.150;2023-03-01T07:10:37;4.60;;;3.67;;
14276;SDS011;7222;57.346;12.150;2023-03-01T07:13:04;4.80;;;3.30;;
14276;SDS011;7222;57.346;12.150;2023-03-01T07:15:33;6.93;;;3.73;;
14276;SDS011;7222;57.346;12.150;2023-03-01T07:17:59;6.13;;;4.20;;
14276;SDS011;7222;57.346;12.150;2023-03-01T07:20:28;8.57;;;5.67;;
14276;SDS011;7222;57.346;12.150;2023-03-01T07:22:55;7.40;;;4.33;;
14276;SDS011;7222;57.346;12.150;2023-03-01T07:25:23;6.77;;;4.83;;
14276;SDS011;7222;57.346;12.150;2023-03-01T07:27:51;7.13;;;5.17;;
14276;SDS011;7222;57.346;12.150;2023-03-01T07:30:18;7.63;;;5.70;;
14276;SDS011;7222;57.346;12.150;2023-03-01T07:32:46;8.57;;;5.37;;
14276;SDS011;7222;57.346;12.150;2023-03-01T07:35:14;8.03;;;5.50;;
14276;SDS011;7222;57.346;12.150;2023-03-01T07:37:42;7.30;;;4.93;;
14276;SDS011;7222;57.346;12.150;2023-03-01T07:40:09;12.90;;;8.27;;
14276;SDS011;7222;57.346;12.150;2023-03-01T07:42:37;7.43;;;5.53;;
14276;SDS011;7222;57.346;12.150;2023-03-01T07:45:04;15.43;;;10.67;;
14276;SDS011;7222;57.346;12.150;2023-03-01T07:47:32;11.30;;;8.30;;
14276;SDS011;7222;57.346;12.150;2023-03-01T07:49:59;11.10;;;7.67;;
14276;SDS011;7222;57.346;12.150;2023-03-01T07:52:27;11.20;;;8.20;;
14276;SDS011;7222;57.346;12.150;2023-03-01T07:54:57;12.27;;;8.87;;
14276;SDS011;7222;57.346;12.150;2023-03-01T07:57:24;13.67;;;9.70;;
14276;SDS011;7222;57.346;12.150;2023-03-01T07:59:52;12.23;;;8.50;;
14276;SDS011;7222;57.346;12.150;2023-03-01T08:02:18;7.40;;;5.57;;
14276;SDS011;7222;57.346;12.150;2023-03-01T08:04:45;9.27;;;6.70;;
14276;SDS011;7222;57.346;12.150;2023-03-01T08:07:12;6.87;;;5.27;;
14276;SDS011;7222;57.346;12.150;2023-03-01T08:09:39;5.43;;;4.10;;
14276;SDS011;7222;57.346;12.150;2023-03-01T08:12:08;6.57;;;4.30;;
14276;SDS011;7222;57.346;12.150;2023-03-01T08:14:35;7.00;;;3.77;;
14276;SDS011;7222;57.346;12.150;2023-03-01T08:17:02;5.03;;;3.93;;
14276;SDS011;7222;57.346;12.150;2023-03-01T08:19:29;3.83;;;3.27;;
14276;SDS011;7222;57.346;12.150;2023-03-01T08:21:56;4.80;;;3.87;;
14276;SDS011;7222;57.346;12.150;2023-03-01T08:24:25;4.60;;;3.70;;
14276;SDS011;7222;57.346;12.150;2023-03-01T08:26:52;4.77;;;3.30;;
14276;SDS011;7222;57.346;12.150;2023-03-01T08:29:20;3.63;;;2.90;;
14276;SDS011;7222;57.346;12.150;2023-03-01T08:31:49;3.50;;;2.83;;
14276;SDS011;7222;57.346;12.150;2023-03-01T08:34:17;4.87;;;2.60;;
14276;SDS011;7222;57.346;12.150;2023-03-01T08:36:45;4.20;;;2.50;;
14276;SDS011;7222;57.346;12.150;2023-03-01T08:39:14;4.00;;;2.60;;
14276;SDS011;7222;57.346;12.150;2023-03-01T08:41:43;3.50;;;3.20;;
14276;SDS011;7222;57.346;12.150;2023-03-01T08:44:11;3.13;;;2.40;;
14276;SDS011;7222;57.346;12.150;2023-03-01T08:46:43;5.00;;;2.67;;
14276;SDS011;7222;57.346;12.150;2023-03-01T08:49:11;6.23;;;3.10;;
14276;SDS011;7222;57.346;12.150;2023-03-01T08:51:39;4.53;;;2.70;;
14276;SDS011;7222;57.346;12.150;2023-03-01T08:54:09;3.73;;;2.77;;
14276;SDS011;7222;57.346;12.150;2023-03-01T08:56:38;2.57;;;2.20;;
14276;SDS011;7222;57.346;12.150;2023-03-01T08:59:04;4.73;;;2.60;;
14276;SDS011;7222;57.346;12.150;2023-03-01T09:01:31;4.57;;;2.73;;
14276;SDS011;7222;57.346;12.150;2023-03-01T09:04:00;3.40;;;2.40;;
14276;SDS011;7222;57.346;12.150;2023-03-01T09:06:27;2.67;;;2.13;;
14276;SDS011;7222;57.346;12.150;2023-03-01T09:08:57;2.60;;;2.10;;
14276;SDS011;7222;57.346;12.150;2023-03-01T09:11:23;2.70;;;2.20;;
14276;SDS011;7222;57.346;12.150;2023-03-01T09:13:50;3.87;;;2.50;;
14276;SDS011;7222;57.346;12.150;2023-03-01T09:16:18;3.57;;;2.37;;
14276;SDS011;7222;57.346;12.150;2023-03-01T09:18:48;2.90;;;2.60;;
14276;SDS011;7222;57.346;12.150;2023-03-01T09:21:17;2.70;;;2.10;;
14276;SDS011;7222;57.346;12.150;2023-03-01T09:23:46;2.63;;;2.40;;
14276;SDS011;7222;57.346;12.150;2023-03-01T09:26:15;2.87;;;2.00;;
14276;SDS011;7222;57.346;12.150;2023-03-01T09:28:44;2.73;;;2.20;;
14276;SDS011;7222;57.346;12.150;2023-03-01T09:31:11;3.13;;;2.20;;
14276;SDS011;7222;57.346;12.150;2023-03-01T09:33:39;2.40;;;2.20;;
14276;SDS011;7222;57.346;12.150;2023-03-01T09:36:10;2.90;;;2.17;;
14276;SDS011;7222;57.346;12.150;2023-03-01T09:38:40;3.20;;;2.10;;
14276;SDS011;7222;57.346;12.150;2023-03-01T09:41:09;3.23;;;2.27;;
14276;SDS011;7222;57.346;12.150;2023-03-01T09:43:46;2.40;;;1.60;;
14276;SDS011;7222;57.346;12.150;2023-03-01T09:46:19;4.23;;;2.43;;
14276;SDS011;7222;57.346;12.150;2023-03-01T09:48:50;2.47;;;2.03;;
14276;SDS011;7222;57.346;12.150;2023-03-01T09:51:23;3.77;;;2.20;;
14276;SDS011;7222;57.346;12.150;2023-03-01T09:53:57;1.77;;;1.67;;
14276;SDS011;7222;57.346;12.150;2023-03-01T09:56:27;1.67;;;1.57;;
14276;SDS011;7222;57.346;12.150;2023-03-01T09:59:02;2.10;;;1.90;;
14276;SDS011;7222;57.346;12.150;2023-03-01T10:01:38;2.17;;;1.90;;
14276;SDS011;7222;57.346;12.150;2023-03-01T10:04:24;6.73;;;2.10;;
14276;SDS011;7222;57.346;12.150;2023-03-01T10:06:58;3.33;;;1.70;;
14276;SDS011;7222;57.346;12.150;2023-03-01T10:09:35;2.17;;;1.90;;
14276;SDS011;7222;57.346;12.150;2023-03-01T10:12:06;1.63;;;1.53;;
14276;SDS011;7222;57.346;12.150;2023-03-01T10:14:36;1.97;;;1.57;;
14276;SDS011;7222;57.346;12.150;2023-03-01T10:17:12;2.57;;;1.33;;
14276;SDS011;7222;57.346;12.150;2023-03-01T10:19:48;1.23;;;1.00;;
14276;SDS011;7222;57.346;12.150;2023-03-01T10:22:15;1.37;;;1.27;;
14276;SDS011;7222;57.346;12.150;2023-03-01T10:24:47;1.30;;;1.20;;
14276;SDS011;7222;57.346;12.150;2023-03-01T10:27:16;1.13;;;1.03;;
14276;SDS011;7222;57.346;12.150;2023-03-01T10:29:49;1.33;;;0.90;;
14276;SDS011;7222;57.346;12.150;2023-03-01T10:32:21;2.33;;;1.50;;
14276;SDS011;7222;57.346;12.150;2023-03-01T10:34:48;1.37;;;1.20;;
14276;SDS011;7222;57.346;12.150;2023-03-01T10:37:15;1.13;;;0.93;;
14276;SDS011;7222;57.346;12.150;2023-03-01T10:40:04;1.07;;;0.93;;
14276;SDS011;7222;57.346;12.150;2023-03-01T10:42:34;0.77;;;0.77;;
14276;SDS011;7222;57.346;12.150;2023-03-01T10:45:19;0.80;;;0.70;;
14276;SDS011;7222;57.346;12.150;2023-03-01T10:48:04;0.77;;;0.70;;
14276;SDS011;7222;57.346;12.150;2023-03-01T10:50:34;1.53;;;0.70;;
14276;SDS011;7222;57.346;12.150;2023-03-01T10:53:03;0.80;;;0.80;;
14276;SDS011;7222;57.346;12.150;2023-03-01T10:55:33;1.00;;;0.90;;
14276;SDS011;7222;57.346;12.150;2023-03-01T10:58:12;0.70;;;0.70;;
14276;SDS011;7222;57.346;12.150;2023-03-01T11:00:46;1.10;;;0.53;;
14276;SDS011;7222;57.346;12.150;2023-03-01T11:03:15;1.50;;;1.37;;
14276;SDS011;7222;57.346;12.150;2023-03-01T11:05:56;4.83;;;4.50;;
14276;SDS011;7222;57.346;12.150;2023-03-01T11:08:34;0.83;;;0.83;;
14276;SDS011;7222;57.346;12.150;2023-03-01T11:11:16;0.73;;;0.73;;
14276;SDS011;7222;57.346;12.150;2023-03-01T11:13:57;0.73;;;0.73;;
14276;SDS011;7222;57.346;12.150;2023-03-01T11:16:31;1.33;;;0.90;;
14276;SDS011;7222;57.346;12.150;2023-03-01T11:19:12;2.27;;;2.10;;
14276;SDS011;7222;57.346;12.150;2023-03-01T11:21:56;1.70;;;1.30;;
14276;SDS011;7222;57.346;12.150;2023-03-01T11:24:33;0.73;;;0.70;;
14276;SDS011;7222;57.346;12.150;2023-03-01T11:27:06;1.17;;;0.60;;
14276;SDS011;7222;57.346;12.150;2023-03-01T11:29:43;0.70;;;0.53;;
14276;SDS011;7222;57.346;12.150;2023-03-01T11:32:16;0.90;;;0.90;;
14276;SDS011;7222;57.346;12.150;2023-03-01T11:34:45;2.10;;;0.90;;
14276;SDS011;7222;57.346;12.150;2023-03-01T11:37:21;0.83;;;0.70;;
14276;SDS011;7222;57.346;12.150;2023-03-01T11:39:53;0.90;;;0.63;;
14276;SDS011;7222;57.346;12.150;2023-03-01T11:42:29;0.60;;;0.60;;
14276;SDS011;7222;57.346;12.150;2023-03-01T11:45:06;0.60;;;0.60;;
14276;SDS011;7222;57.346;12.150;2023-03-01T11:50:40;0.60;;;0.60;;
14276;SDS011;7222;57.346;12.150;2023-03-01T11:53:21;1.13;;;0.80;;
14276;SDS011;7222;57.346;12.150;2023-03-01T11:56:03;0.80;;;0.80;;
14276;SDS011;7222;57.346;12.150;2023-03-01T11:58:43;0.77;;;0.77;;
14276;SDS011;7222;57.346;12.150;2023-03-01T12:01:31;1.67;;;0.83;;
14276;SDS011;7222;57.346;12.150;2023-03-01T12:04:15;1.87;;;0.80;;
14276;SDS011;7222;57.346;12.150;2023-03-01T12:07:05;0.87;;;0.70;;
14276;SDS011;7222;57.346;12.150;2023-03-01T12:09:46;0.90;;;0.90;;
14276;SDS011;7222;57.346;12.150;2023-03-01T12:12:30;0.73;;;0.73;;
14276;SDS011;7222;57.346;12.150;2023-03-01T12:15:21;0.60;;;0.60;;
14276;SDS011;7222;57.346;12.150;2023-03-01T12:18:20;0.90;;;0.77;;
14276;SDS011;7222;57.346;12.150;2023-03-01T12:21:18;0.90;;;0.90;;
14276;SDS011;7222;57.346;12.150;2023-03-01T12:24:08;0.83;;;0.83;;
14276;SDS011;7222;57.346;12.150;2023-03-01T12:27:12;1.77;;;0.90;;
14276;SDS011;7222;57.346;12.150;2023-03-01T12:29:51;1.37;;;0.70;;
14276;SDS011;7222;57.346;12.150;2023-03-01T12:32:28;0.70;;;0.60;;
14276;SDS011;7222;57.346;12.150;2023-03-01T12:35:20;1.37;;;0.70;;
14276;SDS011;7222;57.346;12.150;2023-03-01T12:38:01;0.70;;;0.70;;
14276;SDS011;7222;57.346;12.150;2023-03-01T12:40:53;0.60;;;0.57;;
14276;SDS011;7222;57.346;12.150;2023-03-01T12:43:39;1.67;;;0.83;;
14276;SDS011;7222;57.346;12.150;2023-03-01T12:46:19;1.43;;;0.90;;
14276;SDS011;7222;57.346;12.150;2023-03-01T12:48:59;1.33;;;0.90;;
14276;SDS011;7222;57.346;12.150;2023-03-01T12:51:34;2.17;;;0.90;;
14276;SDS011;7222;57.346;12.150;2023-03-01T12:54:05;1.27;;;0.93;;
14276;SDS011;7222;57.346;12.150;2023-03-01T12:56:40;13.87;;;12.83;;
14276;SDS011;7222;57.346;12.150;2023-03-01T12:59:11;1.63;;;1.20;;
14276;SDS011;7222;57.346;12.150;2023-03-01T13:01:45;1.03;;;0.93;;
14276;SDS011;7222;57.346;12.150;2023-03-01T13:07:19;2.80;;;2.03;;
14276;SDS011;7222;57.346;12.150;2023-03-01T13:09:55;4.37;;;3.97;;
14276;SDS011;7222;57.346;12.150;2023-03-01T13:12:42;2.13;;;1.07;;
14276;SDS011;7222;57.346;12.150;2023-03-01T13:15:24;1.30;;;0.93;;
14276;SDS011;7222;57.346;12.150;2023-03-01T13:18:00;1.37;;;1.00;;
14276;SDS011;7222;57.346;12.150;2023-03-01T13:20:34;1.13;;;1.00;;
14276;SDS011;7222;57.346;12.150;2023-03-01T13:23:21;0.60;;;0.60;;
14276;SDS011;7222;57.346;12.150;2023-03-01T13:26:11;1.03;;;0.90;;
14276;SDS011;7222;57.346;12.150;2023-03-01T13:28:41;0.70;;;0.70;;
14276;SDS011;7222;57.346;12.150;2023-03-01T13:34:50;1.00;;;0.90;;
14276;SDS011;7222;57.346;12.150;2023-03-01T13:37:24;0.93;;;0.93;;
14276;SDS011;7222;57.346;12.150;2023-03-01T13:39:54;0.63;;;0.60;;
14276;SDS011;7222;57.346;12.150;2023-03-01T13:42:35;0.50;;;0.50;;
14276;SDS011;7222;57.346;12.150;2023-03-01T13:45:21;0.77;;;0.77;;
14276;SDS011;7222;57.346;12.150;2023-03-01T13:47:56;0.57;;;0.50;;
14276;SDS011;7222;57.346;12.150;2023-03-01T13:50:25;0.77;;;0.60;;
14276;SDS011;7222;57.346;12.150;2023-03-01T13:52:57;0.70;;;0.50;;
14276;SDS011;7222;57.346;12.150;2023-03-01T13:55:30;0.60;;;0.60;;
14276;SDS011;7222;57.346;12.150;2023-03-01T13:58:04;0.60;;;0.60;;
14276;SDS011;7222;57.346;12.150;2023-03-01T14:00:46;1.73;;;0.67;;
14276;SDS011;7222;57.346;12.150;2023-03-01T14:03:14;0.40;;;0.40;;
14276;SDS011;7222;57.346;12.150;2023-03-01T14:05:44;0.90;;;0.80;;
14276;SDS011;7222;57.346;12.150;2023-03-01T14:08:27;0.50;;;0.50;;
14276;SDS011;7222;57.346;12.150;2023-03-01T14:11:09;3.80;;;1.03;;
14276;SDS011;7222;57.346;12.150;2023-03-01T14:14:03;0.80;;;0.40;;
14276;SDS011;7222;57.346;12.150;2023-03-01T14:16:43;0.40;;;0.40;;
14276;SDS011;7222;57.346;12.150;2023-03-01T14:19:18;0.30;;;0.30;;
14276;SDS011;7222;57.346;12.150;2023-03-01T14:21:57;0.30;;;0.30;;
14276;SDS011;7222;57.346;12.150;2023-03-01T14:24:30;0.30;;;0.30;;
14276;SDS011;7222;57.346;12.150;2023-03-01T14:27:00;0.97;;;0.60;;
14276;SDS011;7222;57.346;12.150;2023-03-01T14:29:28;0.87;;;0.50;;
14276;SDS011;7222;57.346;12.150;2023-03-01T14:32:12;0.60;;;0.37;;
14276;SDS011;7222;57.346;12.150;2023-03-01T14:34:45;0.33;;;0.33;;
14276;SDS011;7222;57.346;12.150;2023-03-01T14:37:19;0.67;;;0.43;;
14276;SDS011;7222;57.346;12.150;2023-03-01T14:39:49;0.40;;;0.40;;
14276;SDS011;7222;57.346;12.150;2023-03-01T14:42:17;0.40;;;0.40;;
14276;SDS011;7222;57.346;12.150;2023-03-01T14:44:46;0.50;;;0.50;;
14276;SDS011;7222;57.346;12.150;2023-03-01T14:47:16;0.73;;;0.60;;
14276;SDS011;7222;57.346;12.150;2023-03-01T14:49:53;1.33;;;0.53;;
14276;SDS011;7222;57.346;12.150;2023-03-01T14:52:25;0.93;;;0.63;;
14276;SDS011;7222;57.346;12.150;2023-03-01T14:55:01;0.93;;;0.63;;
14276;SDS011;7222;57.346;12.150;2023-03-01T14:57:31;1.80;;;0.67;;
14276;SDS011;7222;57.346;12.150;2023-03-01T14:59:59;1.80;;;0.93;;
14276;SDS011;7222;57.346;12.150;2023-03-01T15:02:30;1.63;;;0.90;;
14276;SDS011;7222;57.346;12.150;2023-03-01T15:05:00;1.50;;;1.40;;
14276;SDS011;7222;57.346;12.150;2023-03-01T15:07:30;1.53;;;0.87;;
14276;SDS011;7222;57.346;12.150;2023-03-01T15:10:02;1.10;;;0.60;;
14276;SDS011;7222;57.346;12.150;2023-03-01T15:12:37;1.30;;;0.70;;
14276;SDS011;7222;57.346;12.150;2023-03-01T15:15:19;0.93;;;0.70;;
14276;SDS011;7222;57.346;12.150;2023-03-01T15:17:50;2.23;;;0.97;;
14276;SDS011;7222;57.346;12.150;2023-03-01T15:20:22;1.50;;;1.40;;